sensor_id;sensor_type;location;lat;lon;timestamp;pressure;altitude;pressure_sealevel;temperature;humidity
10732;BME280;5417;42.686;23.244;2023-03-25T00:02:33;94012.75;;;12.69;58.19
10732;BME280;5417;42.686;23.244;2023-03-25T00:05:00;94008.28;;;12.61;58.27
10732;BME280;5417;42.686;23.244;2023-03-25T00:07:32;94009.09;;;12.61;59.16
10732;BME280;5417;42.686;23.244;2023-03-25T00:10:00;94008.19;;;12.53;58.56
10732;BME280;5417;42.686;23.244;2023-03-25T00:12:29;94013.41;;;12.53;58.81
10732;BME280;5417;42.686;23.244;2023-03-25T00:40:23;93991.00;;;12.23;59.46
10732;BME280;5417;42.686;23.244;2023-03-25T00:42:50;93988.03;;;12.18;59.32
10732;BME280;5417;42.686;23.244;2023-03-25T00:45:17;93979.13;;;12.11;59.41
10732;BME280;5417;42.686;23.244;2023-03-25T00:47:44;93966.97;;;12.02;60.62
10732;BME280;5417;42.686;23.244;2023-03-25T00:50:14;93976.66;;;12.09;59.91
10732;BME280;5417;42.686;23.244;2023-03-25T00:52:40;93964.19;;;12.03;60.13
10732;BME280;5417;42.686;23.244;2023-03-25T00:55:08;93960.09;;;12.00;60.32
10732;BME280;5417;42.686;23.244;2023-03-25T00:57:37;93979.41;;;12.08;59.66
10732;BME280;5417;42.686;23.244;2023-03-25T01:00:51;93969.81;;;12.08;59.80
10732;BME280;5417;42.686;23.244;2023-03-25T01:03:15;93969.81;;;12.08;59.93
10732;BME280;5417;42.686;23.244;2023-03-25T01:05:43;93966.53;;;12.06;59.58
10732;BME280;5417;42.686;23.244;2023-03-25T01:08:10;93962.13;;;12.07;59.46
10732;BME280;5417;42.686;23.244;2023-03-25T01:21:09;93949.69;;;11.91;59.78
10732;BME280;5417;42.686;23.244;2023-03-25T01:23:39;93941.31;;;11.87;59.79
10732;BME280;5417;42.686;23.244;2023-03-25T01:26:09;93945.28;;;11.91;59.81
10732;BME280;5417;42.686;23.244;2023-03-25T01:28:42;93932.00;;;11.85;59.80
10732;BME280;5417;42.686;23.244;2023-03-25T01:31:37;93942.69;;;11.91;59.77
10732;BME280;5417;42.686;23.244;2023-03-25T01:34:04;93934.03;;;11.91;60.08
10732;BME280;5417;42.686;23.244;2023-03-25T01:36:36;93925.69;;;11.87;59.87
10732;BME280;5417;42.686;23.244;2023-03-25T01:39:07;93929.50;;;11.93;59.29
10732;BME280;5417;42.686;23.244;2023-03-25T01:42:13;93913.75;;;11.85;58.92
10732;BME280;5417;42.686;23.244;2023-03-25T01:48:24;93916.75;;;11.90;59.23
10732;BME280;5417;42.686;23.244;2023-03-25T01:51:02;93919.78;;;11.85;59.37
10732;BME280;5417;42.686;23.244;2023-03-25T01:56:52;93920.50;;;11.78;59.52
10732;BME280;5417;42.686;23.244;2023-03-25T01:59:23;93924.75;;;11.79;59.45
10732;BME280;5417;42.686;23.244;2023-03-25T02:02:14;93915.41;;;11.76;59.37
10732;BME280;5417;42.686;23.244;2023-03-25T02:04:51;93918.31;;;11.73;59.59
10732;BME280;5417;42.686;23.244;2023-03-25T02:07:26;93895.47;;;11.57;59.67
10732;BME280;5417;42.686;23.244;2023-03-25T02:09:55;93918.31;;;11.73;59.77
10732;BME280;5417;42.686;23.244;2023-03-25T02:12:26;93917.47;;;11.73;59.81
10732;BME280;5417;42.686;23.244;2023-03-25T02:14:53;93914.72;;;11.74;59.36
10732;BME280;5417;42.686;23.244;2023-03-25T02:18:49;93906.75;;;11.76;59.32
10732;BME280;5417;42.686;23.244;2023-03-25T02:24:31;93912.94;;;11.75;59.48
10732;BME280;5417;42.686;23.244;2023-03-25T02:27:47;93912.41;;;11.71;59.35
10732;BME280;5417;42.686;23.244;2023-03-25T02:39:54;93904.50;;;11.63;59.34
10732;BME280;5417;42.686;23.244;2023-03-25T02:42:46;93892.13;;;11.65;59.01
10732;BME280;5417;42.686;23.244;2023-03-25T02:45:19;93906.81;;;11.66;58.67
10732;BME280;5417;42.686;23.244;2023-03-25T02:49:15;93899.81;;;11.66;58.84
10732;BME280;5417;42.686;23.244;2023-03-25T02:51:33;93896.00;;;11.61;59.38
10732;BME280;5417;42.686;23.244;2023-03-25T02:54:46;93894.09;;;11.53;59.60
10732;BME280;5417;42.686;23.244;2023-03-25T03:00:15;93900.03;;;11.46;59.74
10732;BME280;5417;42.686;23.244;2023-03-25T03:03:39;93895.06;;;11.43;59.61
10732;BME280;5417;42.686;23.244;2023-03-25T03:05:56;93887.16;;;11.34;59.93
10732;BME280;5417;42.686;23.244;2023-03-25T03:08:37;93885.38;;;11.35;60.04
10732;BME280;5417;42.686;23.244;2023-03-25T03:11:37;93891.53;;;11.34;60.59
10732;BME280;5417;42.686;23.244;2023-03-25T03:14:45;93891.28;;;11.27;60.46
10732;BME280;5417;42.686;23.244;2023-03-25T03:17:36;93891.72;;;11.23;60.25
10732;BME280;5417;42.686;23.244;2023-03-25T03:20:15;93890.22;;;11.20;60.20
10732;BME280;5417;42.686;23.244;2023-03-25T03:23:00;93898.59;;;11.14;60.43
10732;BME280;5417;42.686;23.244;2023-03-25T03:25:47;93903.13;;;11.12;60.82
10732;BME280;5417;42.686;23.244;2023-03-25T03:28:29;93892.69;;;11.12;60.65
10732;BME280;5417;42.686;23.244;2023-03-25T03:31:07;93892.97;;;11.09;60.67
10732;BME280;5417;42.686;23.244;2023-03-25T03:33:56;93891.63;;;11.05;60.30
10732;BME280;5417;42.686;23.244;2023-03-25T03:36:29;93885.88;;;11.01;61.00
10732;BME280;5417;42.686;23.244;2023-03-25T03:39:03;93896.16;;;11.03;60.70
10732;BME280;5417;42.686;23.244;2023-03-25T03:42:00;93906.56;;;11.03;61.17
10732;BME280;5417;42.686;23.244;2023-03-25T03:44:30;93897.94;;;11.02;61.07
10732;BME280;5417;42.686;23.244;2023-03-25T03:47:06;93897.13;;;11.02;61.08
10732;BME280;5417;42.686;23.244;2023-03-25T03:50:03;93899.16;;;10.98;60.83
10732;BME280;5417;42.686;23.244;2023-03-25T03:53:58;93896.03;;;10.95;60.86
10732;BME280;5417;42.686;23.244;2023-03-25T03:56:23;93896.00;;;10.85;60.98
10732;BME280;5417;42.686;23.244;2023-03-25T04:05:52;93896.56;;;10.79;61.51
10732;BME280;5417;42.686;23.244;2023-03-25T04:09:18;93906.97;;;10.79;61.75
10732;BME280;5417;42.686;23.244;2023-03-25T04:21:13;93899.03;;;10.81;61.25
10732;BME280;5417;42.686;23.244;2023-03-25T04:23:42;93889.56;;;10.89;61.28
10732;BME280;5417;42.686;23.244;2023-03-25T04:26:56;93893.00;;;10.90;61.32
10732;BME280;5417;42.686;23.244;2023-03-25T04:29:09;93897.66;;;10.96;61.36
10732;BME280;5417;42.686;23.244;2023-03-25T04:31:59;93901.91;;;11.06;61.54
10732;BME280;5417;42.686;23.244;2023-03-25T04:34:26;93898.44;;;11.16;61.49
10732;BME280;5417;42.686;23.244;2023-03-25T04:44:22;93902.13;;;12.07;59.96
10732;BME280;5417;42.686;23.244;2023-03-25T04:46:50;93891.91;;;12.76;58.67
10732;BME280;5417;42.686;23.244;2023-03-25T04:49:19;93891.72;;;13.57;56.07
10732;BME280;5417;42.686;23.244;2023-03-25T04:51:46;93894.19;;;14.51;53.69
10732;BME280;5417;42.686;23.244;2023-03-25T04:54:20;93897.84;;;15.39;51.70
10732;BME280;5417;42.686;23.244;2023-03-25T04:56:48;93887.47;;;16.26;48.45
10732;BME280;5417;42.686;23.244;2023-03-25T04:59:30;93885.28;;;17.14;46.63
10732;BME280;5417;42.686;23.244;2023-03-25T05:01:57;93886.44;;;18.02;43.83
10732;BME280;5417;42.686;23.244;2023-03-25T05:04:30;93877.09;;;18.79;41.73
10732;BME280;5417;42.686;23.244;2023-03-25T05:07:35;93879.28;;;19.68;39.26
10732;BME280;5417;42.686;23.244;2023-03-25T05:10:02;93886.13;;;20.59;38.16
10732;BME280;5417;42.686;23.244;2023-03-25T05:12:29;93881.41;;;21.29;37.74
10732;BME280;5417;42.686;23.244;2023-03-25T05:14:57;93879.38;;;21.97;35.90
10732;BME280;5417;42.686;23.244;2023-03-25T05:17:38;93870.28;;;22.51;35.51
10732;BME280;5417;42.686;23.244;2023-03-25T05:20:06;93873.34;;;22.99;34.95
10732;BME280;5417;42.686;23.244;2023-03-25T05:22:35;93879.97;;;23.46;33.62
10732;BME280;5417;42.686;23.244;2023-03-25T05:25:03;93875.59;;;23.83;32.79
10732;BME280;5417;42.686;23.244;2023-03-25T05:27:44;93880.16;;;24.19;31.92
10732;BME280;5417;42.686;23.244;2023-03-25T05:30:13;93872.00;;;24.58;31.69
10732;BME280;5417;42.686;23.244;2023-03-25T05:35:12;93867.50;;;25.06;29.43
10732;BME280;5417;42.686;23.244;2023-03-25T05:36:09;93865.16;;;25.40;28.96
10732;BME280;5417;42.686;23.244;2023-03-25T05:38:37;93854.78;;;25.50;28.35
10732;BME280;5417;42.686;23.244;2023-03-25T05:41:06;93873.50;;;25.85;27.76
10732;BME280;5417;42.686;23.244;2023-03-25T05:43:35;93878.34;;;26.00;27.92
10732;BME280;5417;42.686;23.244;2023-03-25T05:46:04;93881.03;;;26.00;27.59
10732;BME280;5417;42.686;23.244;2023-03-25T05:48:31;93872.22;;;25.99;27.23
10732;BME280;5417;42.686;23.244;2023-03-25T05:51:01;93875.69;;;26.23;27.28
10732;BME280;5417;42.686;23.244;2023-03-25T05:53:29;93864.22;;;26.58;26.81
10732;BME280;5417;42.686;23.244;2023-03-25T05:55:58;93861.97;;;26.66;26.69
10732;BME280;5417;42.686;23.244;2023-03-25T05:58:25;93871.75;;;26.49;27.10
10732;BME280;5417;42.686;23.244;2023-03-25T06:03:30;93867.41;;;26.71;26.60
10732;BME280;5417;42.686;23.244;2023-03-25T06:05:58;93863.22;;;26.76;26.77
10732;BME280;5417;42.686;23.244;2023-03-25T06:08:26;93859.25;;;26.78;27.11
10732;BME280;5417;42.686;23.244;2023-03-25T06:10:54;93860.47;;;27.11;26.58
10732;BME280;5417;42.686;23.244;2023-03-25T06:13:25;93851.84;;;27.37;26.05
10732;BME280;5417;42.686;23.244;2023-03-25T06:15:52;93856.69;;;27.40;25.81
10732;BME280;5417;42.686;23.244;2023-03-25T06:18:21;93854.91;;;27.29;25.74
10732;BME280;5417;42.686;23.244;2023-03-25T06:20:51;93857.34;;;27.47;25.84
10732;BME280;5417;42.686;23.244;2023-03-25T06:23:22;93861.97;;;27.52;25.57
10732;BME280;5417;42.686;23.244;2023-03-25T06:25:49;93857.75;;;27.56;26.12
10732;BME280;5417;42.686;23.244;2023-03-25T06:28:17;93861.63;;;27.77;25.65
10732;BME280;5417;42.686;23.244;2023-03-25T06:30:44;93866.66;;;27.73;26.05
10732;BME280;5417;42.686;23.244;2023-03-25T06:33:11;93862.66;;;27.76;25.98
10732;BME280;5417;42.686;23.244;2023-03-25T06:35:38;93867.44;;;27.90;26.48
10732;BME280;5417;42.686;23.244;2023-03-25T06:38:08;93868.69;;;27.54;26.49
10732;BME280;5417;42.686;23.244;2023-03-25T06:40:38;93869.41;;;26.93;27.01
10732;BME280;5417;42.686;23.244;2023-03-25T06:43:05;93874.25;;;25.62;28.60
10732;BME280;5417;42.686;23.244;2023-03-25T06:45:33;93868.31;;;25.48;28.69
10732;BME280;5417;42.686;23.244;2023-03-25T06:48:05;93871.25;;;25.59;29.64
10732;BME280;5417;42.686;23.244;2023-03-25T06:50:32;93872.78;;;25.25;30.04
10732;BME280;5417;42.686;23.244;2023-03-25T06:53:10;93879.78;;;25.49;30.52
10732;BME280;5417;42.686;23.244;2023-03-25T06:55:37;93881.25;;;25.33;29.95
10732;BME280;5417;42.686;23.244;2023-03-25T06:58:05;93888.06;;;25.59;30.09
10732;BME280;5417;42.686;23.244;2023-03-25T07:00:32;93881.03;;;25.46;29.89
10732;BME280;5417;42.686;23.244;2023-03-25T07:02:59;93887.09;;;24.94;30.98
10732;BME280;5417;42.686;23.244;2023-03-25T07:05:28;93888.03;;;24.33;33.00
10732;BME280;5417;42.686;23.244;2023-03-25T07:07:56;93889.06;;;23.64;33.88
10732;BME280;5417;42.686;23.244;2023-03-25T07:10:42;93881.47;;;22.59;34.86
10732;BME280;5417;42.686;23.244;2023-03-25T07:13:09;93881.84;;;21.65;35.66
10732;BME280;5417;42.686;23.244;2023-03-25T07:15:36;93883.47;;;21.53;36.33
10732;BME280;5417;42.686;23.244;2023-03-25T07:18:55;93886.13;;;21.47;36.66
10732;BME280;5417;42.686;23.244;2023-03-25T07:21:19;93887.06;;;21.06;37.56
10732;BME280;5417;42.686;23.244;2023-03-25T07:23:46;93886.63;;;20.83;39.52
10732;BME280;5417;42.686;23.244;2023-03-25T07:26:14;93884.59;;;20.91;38.32
10732;BME280;5417;42.686;23.244;2023-03-25T07:28:42;93893.53;;;20.84;38.25
10732;BME280;5417;42.686;23.244;2023-03-25T07:31:10;93883.94;;;20.76;38.51
10732;BME280;5417;42.686;23.244;2023-03-25T07:33:38;93885.44;;;20.98;39.40
10732;BME280;5417;42.686;23.244;2023-03-25T07:36:07;93876.28;;;21.14;38.77
10732;BME280;5417;42.686;23.244;2023-03-25T07:38:34;93871.19;;;21.06;39.63
10732;BME280;5417;42.686;23.244;2023-03-25T07:41:04;93878.13;;;21.14;38.74
10732;BME280;5417;42.686;23.244;2023-03-25T07:43:33;93867.13;;;21.17;38.63
10732;BME280;5417;42.686;23.244;2023-03-25T07:46:02;93863.31;;;21.39;39.94
10732;BME280;5417;42.686;23.244;2023-03-25T07:51:13;93867.53;;;22.13;39.90
10732;BME280;5417;42.686;23.244;2023-03-25T07:53:40;93860.34;;;22.40;37.44
10732;BME280;5417;42.686;23.244;2023-03-25T07:56:09;93850.47;;;22.53;36.09
10732;BME280;5417;42.686;23.244;2023-03-25T07:59:03;93852.22;;;22.73;37.60
10732;BME280;5417;42.686;23.244;2023-03-25T08:01:30;93847.28;;;22.83;35.74
10732;BME280;5417;42.686;23.244;2023-03-25T08:03:57;93843.94;;;23.01;35.68
10732;BME280;5417;42.686;23.244;2023-03-25T08:06:24;93835.19;;;22.93;36.43
10732;BME280;5417;42.686;23.244;2023-03-25T08:08:53;93836.91;;;23.13;35.91
10732;BME280;5417;42.686;23.244;2023-03-25T08:11:36;93841.69;;;23.29;35.72
10732;BME280;5417;42.686;23.244;2023-03-25T08:17:14;93831.03;;;23.04;35.95
10732;BME280;5417;42.686;23.244;2023-03-25T08:19:41;93823.84;;;22.73;37.61
10732;BME280;5417;42.686;23.244;2023-03-25T08:22:14;93825.06;;;22.71;36.38
10732;BME280;5417;42.686;23.244;2023-03-25T08:24:41;93827.28;;;22.80;38.16
10732;BME280;5417;42.686;23.244;2023-03-25T08:27:08;93827.47;;;22.85;38.25
10732;BME280;5417;42.686;23.244;2023-03-25T08:29:36;93823.56;;;22.50;37.38
10732;BME280;5417;42.686;23.244;2023-03-25T08:32:03;93829.09;;;22.42;38.30
10732;BME280;5417;42.686;23.244;2023-03-25T08:35:29;93828.34;;;22.21;38.12
10732;BME280;5417;42.686;23.244;2023-03-25T08:37:55;93819.06;;;21.86;38.11
10732;BME280;5417;42.686;23.244;2023-03-25T08:40:26;93824.75;;;21.76;38.58
10732;BME280;5417;42.686;23.244;2023-03-25T08:43:03;93817.63;;;21.77;38.53
10732;BME280;5417;42.686;23.244;2023-03-25T08:45:32;93824.13;;;21.94;37.97
10732;BME280;5417;42.686;23.244;2023-03-25T08:48:02;93810.25;;;21.98;37.45
10732;BME280;5417;42.686;23.244;2023-03-25T08:50:34;93807.03;;;21.83;37.83
10732;BME280;5417;42.686;23.244;2023-03-25T08:53:01;93807.69;;;21.65;38.59
10732;BME280;5417;42.686;23.244;2023-03-25T08:55:28;93797.06;;;21.72;38.26
10732;BME280;5417;42.686;23.244;2023-03-25T08:57:55;93791.13;;;22.03;38.24
10732;BME280;5417;42.686;23.244;2023-03-25T09:00:24;93801.28;;;22.13;37.40
10732;BME280;5417;42.686;23.244;2023-03-25T09:03:06;93792.91;;;22.16;37.04
10732;BME280;5417;42.686;23.244;2023-03-25T09:05:37;93790.34;;;22.41;37.10
10732;BME280;5417;42.686;23.244;2023-03-25T09:08:04;93791.75;;;22.81;35.76
10732;BME280;5417;42.686;23.244;2023-03-25T09:10:39;93791.94;;;22.80;35.72
10732;BME280;5417;42.686;23.244;2023-03-25T09:13:06;93784.97;;;22.92;35.15
10732;BME280;5417;42.686;23.244;2023-03-25T09:15:56;93783.53;;;22.96;36.13
10732;BME280;5417;42.686;23.244;2023-03-25T09:18:24;93760.09;;;22.86;37.67
10732;BME280;5417;42.686;23.244;2023-03-25T09:20:52;93789.16;;;23.06;36.37
10732;BME280;5417;42.686;23.244;2023-03-25T09:23:24;93783.03;;;23.06;36.08
10732;BME280;5417;42.686;23.244;2023-03-25T09:25:51;93778.28;;;22.89;35.55
10732;BME280;5417;42.686;23.244;2023-03-25T09:28:18;93779.09;;;22.83;35.83
10732;BME280;5417;42.686;23.244;2023-03-25T09:30:48;93773.78;;;22.90;35.45
10732;BME280;5417;42.686;23.244;2023-03-25T09:33:20;93775.81;;;22.50;36.20
10732;BME280;5417;42.686;23.244;2023-03-25T09:35:49;93781.50;;;22.09;36.75
10732;BME280;5417;42.686;23.244;2023-03-25T09:38:20;93772.47;;;20.99;38.09
10732;BME280;5417;42.686;23.244;2023-03-25T09:40:55;93786.31;;;21.07;38.71
10732;BME280;5417;42.686;23.244;2023-03-25T09:43:47;93765.56;;;21.24;40.41
10732;BME280;5417;42.686;23.244;2023-03-25T09:46:19;93772.03;;;21.22;38.76
10732;BME280;5417;42.686;23.244;2023-03-25T09:48:48;93775.34;;;21.44;38.97
10732;BME280;5417;42.686;23.244;2023-03-25T09:51:20;93776.53;;;21.48;38.50
10732;BME280;5417;42.686;23.244;2023-03-25T09:53:50;93758.03;;;21.34;39.08
10732;BME280;5417;42.686;23.244;2023-03-25T09:56:23;93766.97;;;21.00;38.15
10732;BME280;5417;42.686;23.244;2023-03-25T10:02:29;93746.31;;;21.75;36.88
10732;BME280;5417;42.686;23.244;2023-03-25T10:09:38;93733.97;;;22.14;36.49
10732;BME280;5417;42.686;23.244;2023-03-25T10:12:17;93722.00;;;22.04;34.87
10732;BME280;5417;42.686;23.244;2023-03-25T10:14:57;93730.06;;;22.23;34.52
10732;BME280;5417;42.686;23.244;2023-03-25T10:20:44;93713.53;;;21.69;36.41
10732;BME280;5417;42.686;23.244;2023-03-25T10:23:18;93719.13;;;21.28;37.52
10732;BME280;5417;42.686;23.244;2023-03-25T10:25:52;93723.00;;;21.06;38.15
10732;BME280;5417;42.686;23.244;2023-03-25T10:28:26;93719.75;;;21.04;38.59
10732;BME280;5417;42.686;23.244;2023-03-25T10:31:21;93712.44;;;20.93;38.15
10732;BME280;5417;42.686;23.244;2023-03-25T10:33:52;93711.59;;;21.12;39.77
10732;BME280;5417;42.686;23.244;2023-03-25T10:36:45;93713.41;;;21.31;39.62
10732;BME280;5417;42.686;23.244;2023-03-25T10:39:16;93700.78;;;21.40;38.05
10732;BME280;5417;42.686;23.244;2023-03-25T10:41:50;93692.00;;;21.53;38.55
10732;BME280;5417;42.686;23.244;2023-03-25T10:44:42;93706.31;;;21.12;38.15
10732;BME280;5417;42.686;23.244;2023-03-25T10:47:14;93695.75;;;20.99;39.06
10732;BME280;5417;42.686;23.244;2023-03-25T10:49:48;93700.22;;;20.65;39.60
10732;BME280;5417;42.686;23.244;2023-03-25T10:52:16;93689.84;;;20.70;39.01
10732;BME280;5417;42.686;23.244;2023-03-25T10:54:51;93684.56;;;20.90;39.59
10732;BME280;5417;42.686;23.244;2023-03-25T10:57:23;93678.03;;;21.06;38.54
10732;BME280;5417;42.686;23.244;2023-03-25T11:00:24;93669.88;;;21.34;38.50
10732;BME280;5417;42.686;23.244;2023-03-25T11:02:52;93664.25;;;21.62;38.47
10732;BME280;5417;42.686;23.244;2023-03-25T11:08:30;93656.25;;;22.20;36.97
10732;BME280;5417;42.686;23.244;2023-03-25T11:11:04;93656.03;;;22.21;36.18
10732;BME280;5417;42.686;23.244;2023-03-25T11:13:52;93650.44;;;21.98;37.02
10732;BME280;5417;42.686;23.244;2023-03-25T11:16:21;93644.78;;;21.30;36.59
10732;BME280;5417;42.686;23.244;2023-03-25T11:19:52;93653.41;;;20.92;37.15
10732;BME280;5417;42.686;23.244;2023-03-25T11:37:46;93618.03;;;21.58;35.87
10732;BME280;5417;42.686;23.244;2023-03-25T11:40:15;93612.06;;;21.69;35.29
10732;BME280;5417;42.686;23.244;2023-03-25T11:42:43;93609.38;;;21.76;35.17
10732;BME280;5417;42.686;23.244;2023-03-25T11:45:46;93606.66;;;21.51;35.62
10732;BME280;5417;42.686;23.244;2023-03-25T11:48:40;93606.72;;;21.37;35.82
10732;BME280;5417;42.686;23.244;2023-03-25T11:51:12;93601.19;;;21.46;36.43
10732;BME280;5417;42.686;23.244;2023-03-25T11:56:58;93603.13;;;20.99;35.61
10732;BME280;5417;42.686;23.244;2023-03-25T11:59:26;93597.88;;;20.79;35.68
10732;BME280;5417;42.686;23.244;2023-03-25T12:02:01;93588.34;;;20.45;35.94
10732;BME280;5417;42.686;23.244;2023-03-25T12:04:29;93594.44;;;20.39;36.66
10732;BME280;5417;42.686;23.244;2023-03-25T12:07:59;93603.75;;;20.15;37.38
10732;BME280;5417;42.686;23.244;2023-03-25T12:10:18;93589.94;;;20.13;37.04
10732;BME280;5417;42.686;23.244;2023-03-25T12:12:52;93602.94;;;20.08;36.87
10732;BME280;5417;42.686;23.244;2023-03-25T12:15:29;93600.72;;;20.11;37.33
10732;BME280;5417;42.686;23.244;2023-03-25T12:18:06;93580.19;;;20.00;36.90
10732;BME280;5417;42.686;23.244;2023-03-25T12:21:03;93596.84;;;19.94;36.99
10732;BME280;5417;42.686;23.244;2023-03-25T12:23:38;93595.00;;;19.88;37.59
10732;BME280;5417;42.686;23.244;2023-03-25T12:26:44;93598.88;;;19.85;37.49
10732;BME280;5417;42.686;23.244;2023-03-25T12:33:20;93600.50;;;20.20;37.38
10732;BME280;5417;42.686;23.244;2023-03-25T12:36:46;93597.09;;;20.45;36.78
10732;BME280;5417;42.686;23.244;2023-03-25T12:39:26;93600.53;;;20.66;36.73
10732;BME280;5417;42.686;23.244;2023-03-25T12:42:05;93592.63;;;20.59;36.00
10732;BME280;5417;42.686;23.244;2023-03-25T12:44:48;93593.25;;;20.48;36.35
10732;BME280;5417;42.686;23.244;2023-03-25T12:47:53;93589.16;;;20.52;35.24
10732;BME280;5417;42.686;23.244;2023-03-25T12:50:41;93584.44;;;20.28;35.96
10732;BME280;5417;42.686;23.244;2023-03-25T12:53:47;93592.38;;;20.14;36.77
10732;BME280;5417;42.686;23.244;2023-03-25T12:56:30;93579.16;;;20.01;36.89
10732;BME280;5417;42.686;23.244;2023-03-25T12:59:12;93592.38;;;20.01;36.27
10732;BME280;5417;42.686;23.244;2023-03-25T13:01:50;93583.63;;;20.14;36.02
10732;BME280;5417;42.686;23.244;2023-03-25T13:04:45;93590.97;;;20.05;36.21
10732;BME280;5417;42.686;23.244;2023-03-25T13:07:18;93592.38;;;19.88;36.76
10732;BME280;5417;42.686;23.244;2023-03-25T13:10:43;93593.19;;;19.95;37.43
10732;BME280;5417;42.686;23.244;2023-03-25T13:13:09;93595.41;;;19.85;37.17
10732;BME280;5417;42.686;23.244;2023-03-25T13:15:42;93600.28;;;19.95;37.00
10732;BME280;5417;42.686;23.244;2023-03-25T13:18:12;93598.25;;;19.90;37.81
10732;BME280;5417;42.686;23.244;2023-03-25T13:20:43;93596.03;;;19.94;37.31
10732;BME280;5417;42.686;23.244;2023-03-25T13:23:18;93593.38;;;19.94;37.67
10732;BME280;5417;42.686;23.244;2023-03-25T13:25:49;93600.50;;;20.06;37.88
10732;BME280;5417;42.686;23.244;2023-03-25T13:31:55;93593.81;;;20.17;37.46
10732;BME280;5417;42.686;23.244;2023-03-25T13:34:26;93589.53;;;19.96;37.72
10732;BME280;5417;42.686;23.244;2023-03-25T13:40:36;93624.16;;;19.60;42.16
10732;BME280;5417;42.686;23.244;2023-03-25T13:43:13;93636.91;;;19.50;45.32
10732;BME280;5417;42.686;23.244;2023-03-25T13:45:48;93636.66;;;19.38;46.58
10732;BME280;5417;42.686;23.244;2023-03-25T13:48:18;93644.75;;;19.30;43.41
10732;BME280;5417;42.686;23.244;2023-03-25T13:51:12;93658.06;;;19.22;44.26
10732;BME280;5417;42.686;23.244;2023-03-25T13:53:42;93657.81;;;19.10;45.52
10732;BME280;5417;42.686;23.244;2023-03-25T13:59:37;93662.84;;;19.05;50.12
10732;BME280;5417;42.686;23.244;2023-03-25T14:05:09;93658.75;;;18.96;51.91
10732;BME280;5417;42.686;23.244;2023-03-25T14:06:10;93653.91;;;18.72;52.74
10732;BME280;5417;42.686;23.244;2023-03-25T14:12:15;93660.63;;;18.53;54.83
10732;BME280;5417;42.686;23.244;2023-03-25T14:21:11;93659.00;;;18.24;54.40
10732;BME280;5417;42.686;23.244;2023-03-25T14:23:41;93654.09;;;18.21;54.44
10732;BME280;5417;42.686;23.244;2023-03-25T14:26:09;93653.38;;;18.12;55.27
10732;BME280;5417;42.686;23.244;2023-03-25T14:28:38;93641.34;;;18.03;55.96
10732;BME280;5417;42.686;23.244;2023-03-25T14:31:23;93618.16;;;17.92;56.81
10732;BME280;5417;42.686;23.244;2023-03-25T14:37:26;93574.44;;;17.70;58.40
10732;BME280;5417;42.686;23.244;2023-03-25T14:39:59;93585.56;;;17.57;58.23
10732;BME280;5417;42.686;23.244;2023-03-25T14:42:55;93594.09;;;17.59;59.80
10732;BME280;5417;42.686;23.244;2023-03-25T14:45:51;93584.56;;;17.58;60.32
10732;BME280;5417;42.686;23.244;2023-03-25T14:48:27;93568.53;;;17.53;59.86
10732;BME280;5417;42.686;23.244;2023-03-25T14:51:16;93568.16;;;17.56;60.41
10732;BME280;5417;42.686;23.244;2023-03-25T14:57:06;93562.78;;;17.64;60.72
10732;BME280;5417;42.686;23.244;2023-03-25T15:09:26;93552.03;;;17.80;60.23
10732;BME280;5417;42.686;23.244;2023-03-25T15:11:56;93544.97;;;17.81;58.57
10732;BME280;5417;42.686;23.244;2023-03-25T15:14:26;93548.22;;;17.83;59.02
10732;BME280;5417;42.686;23.244;2023-03-25T15:16:59;93553.09;;;17.86;58.86
10732;BME280;5417;42.686;23.244;2023-03-25T15:22:33;93529.97;;;17.81;60.51
10732;BME280;5417;42.686;23.244;2023-03-25T15:25:19;93540.56;;;17.88;59.47
10732;BME280;5417;42.686;23.244;2023-03-25T15:29:03;93535.69;;;17.85;59.26
10732;BME280;5417;42.686;23.244;2023-03-25T15:31:21;93538.06;;;17.80;58.31
10732;BME280;5417;42.686;23.244;2023-03-25T15:37:04;93531.94;;;17.73;59.65
10732;BME280;5417;42.686;23.244;2023-03-25T15:49:37;93536.09;;;17.67;63.64
10732;BME280;5417;42.686;23.244;2023-03-25T15:52:20;93518.84;;;17.64;65.90
10732;BME280;5417;42.686;23.244;2023-03-25T15:55:59;93531.19;;;17.64;65.71
10732;BME280;5417;42.686;23.244;2023-03-25T15:58:22;93529.94;;;17.60;65.82
10732;BME280;5417;42.686;23.244;2023-03-25T16:00:52;93527.88;;;17.55;66.46
10732;BME280;5417;42.686;23.244;2023-03-25T16:06:51;93527.63;;;17.50;61.84
10732;BME280;5417;42.686;23.244;2023-03-25T16:09:23;93532.88;;;17.50;61.41
10732;BME280;5417;42.686;23.244;2023-03-25T16:11:51;93536.16;;;17.52;61.90
10732;BME280;5417;42.686;23.244;2023-03-25T16:15:20;93528.06;;;17.54;61.74
10732;BME280;5417;42.686;23.244;2023-03-25T16:17:37;93524.00;;;17.51;61.40
10732;BME280;5417;42.686;23.244;2023-03-25T16:21:04;93530.25;;;17.50;60.95
10732;BME280;5417;42.686;23.244;2023-03-25T16:39:26;93517.72;;;17.31;61.90
10732;BME280;5417;42.686;23.244;2023-03-25T16:42:53;93517.09;;;17.29;61.08
10732;BME280;5417;42.686;23.244;2023-03-25T16:45:13;93513.84;;;17.27;62.14
10732;BME280;5417;42.686;23.244;2023-03-25T16:47:42;93507.16;;;17.24;62.50
10732;BME280;5417;42.686;23.244;2023-03-25T16:50:15;93505.16;;;17.26;63.35
10732;BME280;5417;42.686;23.244;2023-03-25T16:52:44;93514.22;;;17.24;62.94
10732;BME280;5417;42.686;23.244;2023-03-25T16:58:30;93509.88;;;17.16;61.93
10732;BME280;5417;42.686;23.244;2023-03-25T17:31:27;93509.69;;;16.82;62.61
10732;BME280;5417;42.686;23.244;2023-03-25T17:33:59;93511.06;;;16.78;63.23
10732;BME280;5417;42.686;23.244;2023-03-25T17:39:53;93520.25;;;16.67;63.69
10732;BME280;5417;42.686;23.244;2023-03-25T17:42:22;93517.09;;;16.63;63.36
10732;BME280;5417;42.686;23.244;2023-03-25T17:44:50;93512.84;;;16.62;60.92
10732;BME280;5417;42.686;23.244;2023-03-25T17:47:19;93514.22;;;16.58;59.67
10732;BME280;5417;42.686;23.244;2023-03-25T17:49:50;93513.22;;;16.59;58.89
10732;BME280;5417;42.686;23.244;2023-03-25T17:52:28;93507.50;;;16.56;59.73